Time;durP1;ratioP1;P1;durP2;ratioP2;P2;SDS_P1;SDS_P2;PMS_P1;PMS_P2;Temp;Humidity;BMP_temperature;BMP_pressure;BME280_temperature;BME280_humidity;BME280_pressure;Samples;Min_cycle;Max_cycle;Signal;HPM_P1;HPM_P2
2022/05/25 00:02:08;;;;;;;3.47;3.27;;;;;;;15.49;95.80;100227.53;5219055;56;1139043;-75
2022/05/25 00:07:15;;;;;;;3.50;3.20;;;;;;;15.42;95.88;100230.50;5188025;56;1139043;-73
2022/05/25 00:12:21;;;;;;;4.10;3.53;;;;;;;15.37;96.02;100236.78;5218773;56;1139100;-72
2022/05/25 00:17:27;;;;;;;3.93;3.63;;;;;;;15.36;96.05;100233.78;5217776;56;1139021;-72
2022/05/25 00:22:49;;;;;;;4.07;3.77;;;;;;;15.30;95.84;100253.53;5217838;56;1139038;-74
2022/05/25 00:27:55;;;;;;;4.27;3.90;;;;;;;15.19;96.01;100259.12;5133073;56;1139090;-76
2022/05/25 00:33:02;;;;;;;6.63;3.97;;;;;;;15.18;96.01;100269.44;5147097;56;1139041;-73
2022/05/25 00:38:10;;;;;;;3.57;3.37;;;;;;;15.15;95.86;100270.58;5194301;56;1138898;-77
2022/05/25 00:43:16;;;;;;;4.50;4.10;;;;;;;15.22;96.53;100264.15;5139117;56;1139019;-75
2022/05/25 00:48:34;;;;;;;4.10;3.80;;;;;;;15.31;96.83;100269.38;5126382;57;1139060;-74
2022/05/25 00:53:48;;;;;;;4.73;4.00;;;;;;;15.37;96.63;100265.26;5131646;57;1139126;-74
2022/05/25 00:59:07;;;;;;;5.00;4.60;;;;;;;15.44;96.22;100269.80;5131993;57;1139057;-73
2022/05/25 01:04:15;;;;;;;4.40;4.10;;;;;;;15.52;95.96;100270.36;5061402;57;1136996;-73
2022/05/25 01:09:25;;;;;;;7.07;5.07;;;;;;;15.55;95.52;100276.75;5131936;57;1136985;-76
2022/05/25 01:15:07;;;;;;;6.13;5.57;;;;;;;15.55;95.15;100284.75;5132198;57;1136997;-76
2022/05/25 01:20:23;;;;;;;5.03;4.33;;;;;;;15.46;94.42;100281.14;5133023;57;1136967;-78
2022/05/25 01:26:03;;;;;;;6.47;4.73;;;;;;;15.33;93.33;100302.53;5176434;56;1136974;-73
2022/05/25 01:31:14;;;;;;;5.60;4.95;;;;;;;15.29;93.24;100290.50;5213965;56;1139162;-74
2022/05/25 01:36:36;;;;;;;6.90;6.13;;;;;;;15.23;93.57;100290.64;5131992;57;1139061;-73
2022/05/25 01:41:55;;;;;;;6.93;4.90;;;;;;;15.15;92.96;100290.56;5158110;56;1139245;-75
2022/05/25 01:47:10;;;;;;;5.73;4.87;;;;;;;15.01;92.46;100301.76;5214482;56;1139149;-75
2022/05/25 01:52:20;;;;;;;5.50;5.00;;;;;;;14.73;91.53;100309.81;5218610;56;1139093;-75
2022/05/25 01:57:30;;;;;;;5.28;4.80;;;;;;;14.47;92.00;100310.70;5218706;56;1139349;-75
2022/05/25 02:08:15;;;;;;;5.50;5.00;;;;;;;14.02;93.31;100320.75;5187626;56;1138984;-73
2022/05/25 02:13:52;;;;;;;5.33;4.83;;;;;;;14.01;94.87;100308.44;5219040;56;1139291;-75
2022/05/25 02:19:15;;;;;;;4.30;3.90;;;;;;;14.24;96.05;100311.55;5219242;56;1139137;-77
2022/05/25 02:24:34;;;;;;;9.00;6.33;;;;;;;14.24;94.66;100331.49;5219190;56;1139067;-77
2022/05/25 02:29:50;;;;;;;9.70;7.40;;;;;;;14.12;94.78;100337.98;5158035;56;1136973;-74
2022/05/25 02:34:58;;;;;;;6.37;5.80;;;;;;;14.10;95.90;100344.78;5127227;57;1136961;-76
2022/05/25 02:40:07;;;;;;;5.47;4.73;;;;;;;14.26;96.77;100331.70;5139074;56;1136966;-76
2022/05/25 02:45:13;;;;;;;11.57;4.90;;;;;;;14.39;96.43;100332.19;5215609;56;1136900;-75
2022/05/25 02:50:19;;;;;;;8.73;4.73;;;;;;;14.55;97.00;100318.76;5214425;56;1139114;-77
2022/05/25 02:55:25;;;;;;;10.67;5.03;;;;;;;14.68;97.05;100323.22;5214549;56;1136998;-74
2022/05/25 03:00:31;;;;;;;5.50;5.07;;;;;;;14.76;96.90;100332.15;5214522;56;1139053;-74
2022/05/25 03:05:37;;;;;;;9.13;4.93;;;;;;;14.71;95.73;100342.89;5218605;56;1137030;-76
2022/05/25 03:10:43;;;;;;;5.27;4.60;;;;;;;14.57;95.47;100358.04;5188015;56;1137054;-76
2022/05/25 03:15:48;;;;;;;5.30;4.20;;;;;;;14.30;95.81;100355.70;5219083;56;1136936;-74
2022/05/25 03:20:54;;;;;;;4.70;4.30;;;;;;;14.13;96.40;100354.30;5219035;56;1136409;-76
2022/05/25 03:26:01;;;;;;;4.90;4.50;;;;;;;14.16;97.70;100360.17;5166489;56;1136965;-76
2022/05/25 03:31:07;;;;;;;5.73;5.23;;;;;;;14.36;98.27;100359.08;5142312;56;1136538;-73
2022/05/25 03:36:13;;;;;;;6.03;5.47;;;;;;;14.53;98.19;100350.84;5198644;56;1135069;-75
2022/05/25 03:41:20;;;;;;;6.97;5.93;;;;;;;14.59;98.07;100348.09;5210921;56;21495;-77
2022/05/25 03:46:26;;;;;;;5.70;4.83;;;;;;;14.61;97.61;100352.28;5218294;56;1135108;-73
2022/05/25 03:51:32;;;;;;;5.87;4.30;;;;;;;14.46;96.88;100372.39;5155563;56;1138955;-76
2022/05/25 03:56:38;;;;;;;8.63;6.30;;;;;;;14.34;96.97;100382.86;5155523;56;1139261;-74
2022/05/25 04:01:44;;;;;;;6.27;5.67;;;;;;;14.24;97.29;100384.69;5155632;56;1139048;-75
2022/05/25 04:06:50;;;;;;;6.80;6.03;;;;;;;14.31;98.18;100387.13;5165795;56;1139042;-73
2022/05/25 04:11:56;;;;;;;6.43;5.83;;;;;;;14.45;99.40;100399.14;5214043;55;1139109;-76
2022/05/25 04:17:03;;;;;;;11.13;5.67;;;;;;;14.44;98.90;100398.31;5236782;55;1139491;-75
2022/05/25 04:22:09;;;;;;;9.67;6.17;;;;;;;14.35;98.83;100404.48;5233551;55;1140976;-75
2022/05/25 04:27:14;;;;;;;6.17;5.57;;;;;;;14.32;99.36;100413.59;5258265;56;1139044;-74
2022/05/25 04:32:20;;;;;;;7.53;6.33;;;;;;;14.40;100.00;100407.56;5181400;56;1139059;-76
2022/05/25 04:42:52;;;;;;;7.63;5.73;;;;;;;14.63;100.00;100404.88;5219358;56;1141393;-76
2022/05/25 04:48:00;;;;;;;6.87;5.10;;;;;;;14.61;100.00;100408.17;5220915;56;1141164;-75
2022/05/25 04:53:07;;;;;;;5.43;4.93;;;;;;;14.61;100.00;100402.02;5221214;56;1141142;-78
2022/05/25 04:58:22;;;;;;;4.83;4.07;;;;;;;14.61;100.00;100408.67;5194540;56;1141254;-74
2022/05/25 05:03:30;;;;;;;5.90;5.33;;;;;;;14.63;100.00;100402.22;5218078;56;1141052;-74
2022/05/25 05:08:36;;;;;;;3.40;3.20;;;;;;;14.70;100.00;100400.63;5201216;56;1141388;-76
2022/05/25 05:13:43;;;;;;;8.03;4.43;;;;;;;14.84;100.00;100389.13;5189922;57;1141149;-76
2022/05/25 05:18:49;;;;;;;3.20;3.00;;;;;;;14.93;100.00;100396.23;5177109;56;1141047;-74
2022/05/25 05:23:56;;;;;;;7.43;3.47;;;;;;;15.00;100.00;100398.62;5172169;56;1141582;-77
2022/05/25 05:29:02;;;;;;;4.37;3.77;;;;;;;15.10;100.00;100390.93;5177450;56;1141048;-76
2022/05/25 05:34:07;;;;;;;4.50;3.27;;;;;;;15.23;100.00;100399.04;5131808;57;1141124;-74
2022/05/25 05:39:16;;;;;;;3.93;3.60;;;;;;;15.33;100.00;100398.45;5181843;56;1141182;-77
2022/05/25 05:44:27;;;;;;;3.37;3.17;;;;;;;15.38;100.00;100401.52;5181976;56;1141152;-75
2022/05/25 05:49:32;;;;;;;4.17;3.77;;;;;;;15.43;100.00;100405.38;5218015;56;1141443;-78
2022/05/25 05:54:40;;;;;;;3.42;3.12;;;;;;;15.45;99.59;100397.23;5218197;56;1141201;-76
2022/05/25 05:59:45;;;;;;;3.40;2.83;;;;;;;15.44;97.89;100409.72;5218161;56;1139068;-76
2022/05/25 06:04:51;;;;;;;3.60;3.30;;;;;;;15.46;97.76;100417.07;5238674;55;1139027;-76
2022/05/25 06:09:58;;;;;;;3.43;3.13;;;;;;;15.46;97.98;100428.23;5251811;55;1139219;-78
2022/05/25 06:20:29;;;;;;;3.40;3.20;;;;;;;15.54;97.05;100450.97;5269295;55;1137134;-75
2022/05/25 06:25:34;;;;;;;3.22;3.02;;;;;;;15.52;96.98;100448.95;5230698;56;1137115;-76
2022/05/25 06:30:40;;;;;;;3.13;2.40;;;;;;;15.56;96.96;100449.52;5190878;57;1137272;-77
2022/05/25 06:35:46;;;;;;;3.83;3.37;;;;;;;15.59;97.02;100449.20;5203394;56;1136912;-77
2022/05/25 06:40:52;;;;;;;3.50;3.20;;;;;;;15.60;96.36;100457.04;5278406;56;1137251;-77
2022/05/25 06:45:57;;;;;;;3.07;2.87;;;;;;;15.62;96.12;100463.55;5278464;55;1136808;-77
2022/05/25 06:51:15;;;;;;;4.63;2.83;;;;;;;15.69;96.81;100469.97;5278404;56;1136933;-77
2022/05/25 06:56:25;;;;;;;2.43;2.33;;;;;;;15.83;97.00;100474.27;5275333;56;1136873;-77
2022/05/25 07:01:31;;;;;;;3.50;3.20;;;;;;;15.96;96.35;100469.02;5277234;56;1137136;-77
2022/05/25 07:06:39;;;;;;;2.87;2.67;;;;;;;16.06;95.32;100476.42;5277691;55;1136938;-75
2022/05/25 07:11:52;;;;;;;3.97;2.80;;;;;;;16.15;94.97;100469.68;5237614;56;1136936;-77
2022/05/25 07:16:59;;;;;;;3.10;2.90;;;;;;;16.25;93.96;100476.73;5190847;56;1134913;-76
2022/05/25 07:22:12;;;;;;;2.90;2.67;;;;;;;16.39;94.34;100474.33;5190966;56;1138981;-76
2022/05/25 07:27:18;;;;;;;6.70;2.93;;;;;;;16.57;94.45;100465.42;5266943;55;1139011;-73
2022/05/25 07:32:24;;;;;;;8.08;2.50;;;;;;;16.70;92.80;100473.36;5266773;56;1139160;-77
2022/05/25 07:37:37;;;;;;;3.07;2.27;;;;;;;16.76;91.33;100475.41;5228616;55;1139076;-76
2022/05/25 07:42:46;;;;;;;2.47;2.27;;;;;;;16.81;89.34;100481.58;5267952;56;1138986;-74
2022/05/25 07:47:53;;;;;;;7.97;2.23;;;;;;;16.86;88.47;100484.63;5221147;56;1139048;-78
2022/05/25 07:53:01;;;;;;;3.73;3.10;;;;;;;16.90;87.98;100485.15;5221252;56;1139036;-76
2022/05/25 07:58:06;;;;;;;3.33;3.00;;;;;;;17.01;86.21;100496.38;5221116;56;1139036;-77
2022/05/25 08:08:36;;;;;;;3.37;3.07;;;;;;;17.05;83.49;100515.60;5221232;56;1139107;-75
2022/05/25 08:13:47;;;;;;;3.63;2.97;;;;;;;17.07;80.63;100517.12;5193947;56;1139137;-76
2022/05/25 08:18:52;;;;;;;3.40;2.63;;;;;;;17.05;80.62;100511.09;5131015;57;1139006;-77
2022/05/25 08:23:59;;;;;;;4.83;3.20;;;;;;;17.09;77.59;100516.97;5071221;57;1139112;-76
2022/05/25 08:29:05;;;;;;;3.20;3.00;;;;;;;17.10;77.28;100523.48;5098865;57;1139024;-76
2022/05/25 08:34:10;;;;;;;4.13;3.20;;;;;;;17.12;77.13;100524.63;5133040;57;1139338;-76
2022/05/25 08:39:16;;;;;;;4.03;2.60;;;;;;;17.08;76.88;100527.31;5118835;57;1139521;-77
2022/05/25 08:44:23;;;;;;;2.03;1.87;;;;;;;17.07;75.52;100542.51;5108639;57;1139017;-74
2022/05/25 08:49:33;;;;;;;9.40;2.60;;;;;;;17.02;73.46;100545.31;5150850;57;1139168;-76
2022/05/25 08:54:39;;;;;;;3.13;2.93;;;;;;;17.06;74.41;100560.88;5150753;56;1139107;-76
2022/05/25 08:59:51;;;;;;;3.83;2.73;;;;;;;17.10;75.88;100561.40;5150908;57;1139078;-76
2022/05/25 09:05:19;;;;;;;3.27;3.07;;;;;;;17.07;76.34;100564.38;5150655;57;1139372;-75
2022/05/25 09:10:26;;;;;;;4.13;3.57;;;;;;;17.10;78.65;100567.58;5125356;57;1139354;-77
2022/05/25 09:16:15;;;;;;;4.27;3.37;;;;;;;17.16;79.29;100573.60;5150797;57;1139012;-74
2022/05/25 09:20:49;;;;;;;4.93;2.93;;;;;;;17.18;79.33;100568.10;5157321;56;1139046;-75
2022/05/25 09:25:56;;;;;;;5.30;2.43;;;;;;;17.19;79.19;100573.79;5165862;56;1137104;-76
2022/05/25 09:31:04;;;;;;;3.45;2.52;;;;;;;17.18;79.13;100582.30;5132663;56;1136928;-77
2022/05/25 09:36:25;;;;;;;3.83;2.70;;;;;;;17.15;78.87;100579.11;5143333;56;1136981;-76
2022/05/25 09:41:31;;;;;;;6.10;4.40;;;;;;;17.20;79.40;100588.83;5189367;56;1137292;-74
2022/05/25 09:46:44;;;;;;;4.67;3.93;;;;;;;17.25;79.50;100573.66;5218361;56;1137230;-75
2022/05/25 09:51:53;;;;;;;;;;;;;;;17.25;80.17;100578.50;5221953;56;1136934;-77
2022/05/25 09:57:25;;;;;;;6.43;3.13;;;;;;;17.25;79.97;100583.85;5220892;56;974253;-78
2022/05/25 10:02:58;;;;;;;8.17;3.00;;;;;;;17.27;80.81;100563.11;5217504;56;1132792;-78
2022/05/25 10:08:16;;;;;;;5.23;2.97;;;;;;;17.25;80.32;100570.98;5207191;56;1138989;-75
2022/05/25 10:13:27;;;;;;;3.83;3.37;;;;;;;17.27;80.99;100572.97;5134562;57;1139048;-74
2022/05/25 10:18:42;;;;;;;5.00;2.90;;;;;;;17.29;80.99;100574.48;5128539;57;1139015;-77
2022/05/25 10:23:47;;;;;;;4.90;2.73;;;;;;;17.30;81.58;100568.14;5132385;56;1139004;-74
2022/05/25 10:29:00;;;;;;;3.40;3.07;;;;;;;17.37;81.60;100571.87;5132402;57;1138942;-76
2022/05/25 10:39:30;;;;;;;7.93;3.40;;;;;;;17.55;81.91;100569.09;5083200;56;1139016;-75
2022/05/25 10:45:00;;;;;;;4.77;3.27;;;;;;;17.64;81.49;100558.77;5215141;56;1139045;-77
2022/05/25 10:50:10;;;;;;;7.43;4.40;;;;;;;17.75;80.97;100570.98;5218041;56;1138996;-74
2022/05/25 10:55:16;;;;;;;6.10;3.57;;;;;;;17.74;79.52;100570.65;5217792;56;1139011;-77
2022/05/25 11:00:48;;;;;;;4.10;3.75;;;;;;;17.75;78.49;100565.64;5217837;56;1139135;-76
2022/05/25 11:06:34;;;;;;;4.03;3.70;;;;;;;17.81;78.28;100562.31;5135460;56;1139402;-73
2022/05/25 11:12:11;;;;;;;9.00;3.97;;;;;;;17.90;76.90;100558.14;5132369;57;1137103;-76
2022/05/25 11:17:44;;;;;;;13.23;4.53;;;;;;;17.90;76.46;100547.44;5189754;56;1137084;-75
2022/05/25 11:23:25;;;;;;;7.33;3.43;;;;;;;17.90;76.46;100547.44;5218413;56;1137324;-74
2022/05/25 11:29:07;;;;;;;6.57;4.33;;;;;;;17.99;73.71;100556.33;5218021;56;1138971;-75
2022/05/25 11:34:45;;;;;;;5.37;3.40;;;;;;;18.01;74.93;100560.18;5217831;56;1138967;-75
2022/05/25 11:40:24;;;;;;;8.75;3.30;;;;;;;18.15;75.07;100553.66;5217875;56;1139100;-76
2022/05/25 11:46:07;;;;;;;4.90;3.67;;;;;;;18.28;73.30;100553.16;5217874;56;1139276;-74
2022/05/25 11:51:31;;;;;;;3.23;2.50;;;;;;;18.30;73.21;100554.33;5217372;56;1138964;-75
2022/05/25 11:56:59;;;;;;;3.98;3.47;;;;;;;18.36;69.63;100562.51;5217667;56;1137014;-74
2022/05/25 12:02:27;;;;;;;6.70;3.10;;;;;;;18.32;72.07;100550.98;5199404;56;1136933;-74
2022/05/25 12:08:03;;;;;;;6.97;3.90;;;;;;;18.41;72.78;100553.48;5247143;55;1136949;-74
2022/05/25 12:13:37;;;;;;;6.53;3.00;;;;;;;18.41;72.33;100551.30;5223236;56;1139011;-74
2022/05/25 12:18:47;;;;;;;4.62;3.17;;;;;;;18.38;72.50;100551.13;5213716;56;1139041;-75
2022/05/25 12:23:59;;;;;;;12.73;8.57;;;;;;;18.35;70.39;100558.66;5221155;56;1139074;-75
2022/05/25 12:29:21;;;;;;;7.00;4.00;;;;;;;18.25;71.49;100558.84;5164766;56;1141123;-76
2022/05/25 12:34:51;;;;;;;3.97;3.00;;;;;;;18.12;71.74;100547.80;5142896;57;1139122;-75
2022/05/25 12:39:57;;;;;;;16.12;3.40;;;;;;;18.07;73.51;100553.64;5113122;57;1139031;-76
2022/05/25 12:50:52;;;;;;;3.00;2.30;;;;;;;17.99;75.37;100542.11;5078980;58;1139023;-75
2022/05/25 12:56:01;;;;;;;5.62;3.05;;;;;;;17.93;76.59;100548.45;5040704;58;1139224;-74
2022/05/25 13:01:26;;;;;;;4.30;2.60;;;;;;;17.90;78.35;100544.77;5025937;58;1139074;-74
2022/05/25 13:06:40;;;;;;;0.97;0.80;;;;;;;17.68;78.07;100532.04;4995970;59;1139303;-75
2022/05/25 13:11:51;;;;;;;6.40;2.15;;;;;;;17.48;71.45;100538.13;5052598;58;1137054;-74
2022/05/25 13:17:03;;;;;;;7.35;2.35;;;;;;;17.34;77.46;100540.59;5076877;58;1137159;-75
2022/05/25 13:22:22;;;;;;;1.50;1.50;;;;;;;17.19;82.24;100537.20;5143372;57;1136979;-75
2022/05/25 13:28:10;;;;;;;3.60;2.30;;;;;;;17.04;82.23;100530.80;5160948;57;1136985;-76
2022/05/25 13:33:26;;;;;;;2.03;1.50;;;;;;;16.92;82.54;100538.77;5120514;57;1135121;-75
2022/05/25 13:38:45;;;;;;;2.90;1.57;;;;;;;16.86;82.41;100544.73;5086761;57;1139031;-74
2022/05/25 13:44:06;;;;;;;2.63;1.17;;;;;;;16.83;81.40;100548.55;5244828;56;1139313;-76
2022/05/25 13:49:35;;;;;;;1.10;0.93;;;;;;;16.92;81.29;100534.75;5181841;56;1139146;-76
2022/05/25 13:54:43;;;;;;;0.60;0.60;;;;;;;17.17;78.44;100535.69;5217636;56;1139208;-76
2022/05/25 13:59:49;;;;;;;1.70;0.70;;;;;;;17.37;74.57;100537.11;5217487;56;1139033;-76
2022/05/25 14:05:00;;;;;;;0.80;0.80;;;;;;;17.53;75.52;100530.47;5200763;56;1139105;-74
2022/05/25 14:16:10;;;;;;;0.67;0.47;;;;;;;18.08;72.31;100527.72;5213570;56;1139032;-76
2022/05/25 14:21:43;;;;;;;0.53;0.50;;;;;;;18.14;65.28;100515.85;5213599;56;1138983;-76
2022/05/25 14:27:01;;;;;;;1.33;1.23;;;;;;;18.12;65.18;100513.00;5212903;56;1139077;-74
2022/05/25 14:32:29;;;;;;;8.75;1.37;;;;;;;18.13;66.36;100517.35;5153254;56;1136940;-76
2022/05/25 14:37:38;;;;;;;30.55;25.80;;;;;;;18.00;66.09;100505.81;5129126;57;1136971;-75
2022/05/25 14:43:00;;;;;;;1.05;1.05;;;;;;;18.03;67.82;100505.95;5215440;56;1141035;-75
2022/05/25 14:48:09;;;;;;;1.27;1.17;;;;;;;18.19;69.43;100504.62;5219113;56;1137095;-75
2022/05/25 14:53:30;;;;;;;1.98;1.42;;;;;;;18.48;67.92;100492.05;5139376;56;1136977;-75
2022/05/25 14:58:52;;;;;;;1.85;1.22;;;;;;;18.67;67.10;100498.37;5155903;56;1134892;-74
2022/05/25 15:04:03;;;;;;;2.30;1.80;;;;;;;18.84;66.07;100496.48;5200056;56;1139231;-76
2022/05/25 15:09:24;;;;;;;2.55;1.80;;;;;;;19.06;66.84;100489.04;5213838;56;1139393;-74
2022/05/25 15:20:26;;;;;;;7.20;2.50;;;;;;;19.26;68.07;100486.23;5219074;56;1139275;-75
2022/05/25 15:25:44;;;;;;;2.22;1.60;;;;;;;19.35;68.58;100475.48;5218256;56;1139236;-73
2022/05/25 15:31:05;;;;;;;7.33;1.55;;;;;;;19.32;68.00;100478.84;5221275;56;1139195;-74
2022/05/25 15:36:23;;;;;;;2.17;1.60;;;;;;;19.25;68.90;100485.06;5221065;56;1139036;-75
2022/05/25 15:41:29;;;;;;;4.50;2.10;;;;;;;19.30;69.03;100484.88;5269402;55;1139023;-74
2022/05/25 15:46:44;;;;;;;3.87;2.55;;;;;;;19.40;67.96;100477.94;5282634;55;1139390;-75
2022/05/25 15:52:00;;;;;;;6.55;3.15;;;;;;;19.39;68.03;100466.91;5309932;55;1139670;-75
2022/05/25 15:57:02;;;;;;;4.55;2.20;;;;;;;19.43;67.79;100470.88;5254104;55;1139421;-77
2022/05/25 16:02:08;;;;;;;4.56;2.64;;;;;;;19.46;68.07;100469.70;5286880;55;1139213;-74
2022/05/25 16:07:14;;;;;;;4.37;2.80;;;;;;;19.48;68.60;100472.54;5221384;56;1137099;-75
2022/05/25 16:12:20;;;;;;;3.72;1.60;;;;;;;19.56;68.28;100467.64;5221347;56;1137173;-76
2022/05/25 16:17:27;;;;;;;10.32;7.53;;;;;;;19.60;67.61;100465.78;5221234;56;1137248;-74
2022/05/25 16:22:32;;;;;;;10.03;7.50;;;;;;;19.66;68.19;100464.23;5155766;56;1139197;-74
2022/05/25 16:27:39;;;;;;;3.12;1.47;;;;;;;19.65;67.36;100459.38;5162968;57;1139112;-74
2022/05/25 16:32:45;;;;;;;9.04;3.18;;;;;;;19.61;64.83;100471.47;5164616;56;1136967;-74
2022/05/25 16:37:51;;;;;;;2.80;2.60;;;;;;;19.46;66.09;100469.20;5183722;56;1136934;-74
2022/05/25 16:42:57;;;;;;;5.60;2.35;;;;;;;19.32;66.16;100464.59;5148878;56;1137063;-74
2022/05/25 16:48:05;;;;;;;3.83;3.60;;;;;;;19.22;66.23;100467.51;5090279;56;1137208;-75
2022/05/25 16:53:10;;;;;;;1.67;1.57;;;;;;;19.14;66.37;100466.70;5078481;58;1137116;-73
2022/05/25 16:58:16;;;;;;;1.82;1.72;;;;;;;19.17;67.18;100467.19;5078306;57;1137084;-74
2022/05/25 17:03:23;;;;;;;1.65;1.55;;;;;;;19.22;67.70;100461.31;5117876;57;1136850;-75
2022/05/25 17:08:31;;;;;;;2.92;1.40;;;;;;;19.24;67.43;100452.59;5211352;56;1136967;-73
2022/05/25 17:13:40;;;;;;;1.60;1.50;;;;;;;19.21;66.70;100451.59;5217878;56;1137060;-76
2022/05/25 17:24:11;;;;;;;2.05;1.95;;;;;;;19.01;67.49;100467.27;5218000;56;1138989;-75
2022/05/25 17:29:17;;;;;;;2.53;1.93;;;;;;;18.89;68.24;100475.38;5218366;56;1139227;-75
2022/05/25 17:34:25;;;;;;;2.13;1.73;;;;;;;18.86;68.80;100487.77;5218403;56;1139044;-75
2022/05/25 17:44:55;;;;;;;3.40;2.55;;;;;;;18.77;69.63;100503.05;5219259;56;1139142;-73
2022/05/25 17:50:02;;;;;;;6.42;2.72;;;;;;;18.68;70.04;100503.23;5188332;56;1139062;-73
2022/05/25 17:55:10;;;;;;;9.43;4.25;;;;;;;18.62;70.45;100503.44;5218642;56;1138972;-75
2022/05/25 18:00:17;;;;;;;5.33;3.33;;;;;;;18.52;71.07;100522.82;5212400;56;1139109;-73
2022/05/25 18:05:23;;;;;;;2.52;2.12;;;;;;;18.34;68.53;100541.75;5105313;57;1139129;-74
2022/05/25 18:10:33;;;;;;;6.15;2.10;;;;;;;17.99;67.59;100543.45;5133534;57;1139053;-75
2022/05/25 18:15:40;;;;;;;2.47;1.98;;;;;;;17.78;67.31;100546.09;5133422;57;1139040;-76
2022/05/25 18:20:46;;;;;;;2.72;1.80;;;;;;;17.62;67.59;100550.03;5133463;57;1139052;-74
2022/05/25 18:25:52;;;;;;;7.65;2.30;;;;;;;17.58;68.08;100552.69;5133466;57;1139052;-75
2022/05/25 18:30:58;;;;;;;4.75;2.98;;;;;;;17.56;68.33;100547.53;5101587;57;1139152;-73
2022/05/25 18:36:23;;;;;;;13.32;6.17;;;;;;;17.51;68.24;100549.84;5074979;57;1139069;-73
2022/05/25 18:41:29;;;;;;;14.38;8.58;;;;;;;17.48;68.41;100558.69;5041486;57;1141111;-73
2022/05/25 18:46:36;;;;;;;27.07;9.05;;;;;;;17.41;68.60;100566.54;5049101;57;1141410;-73
2022/05/25 18:51:43;;;;;;;7.97;4.33;;;;;;;17.35;68.76;100569.84;5036021;57;1141085;-75
2022/05/25 18:56:50;;;;;;;7.53;4.28;;;;;;;17.26;68.98;100574.84;5128972;56;1139026;-74
2022/05/25 19:01:56;;;;;;;10.63;4.80;;;;;;;17.20;69.34;100586.16;5135340;57;1139102;-74
2022/05/25 19:07:04;;;;;;;14.83;6.60;;;;;;;17.20;69.93;100579.47;5098668;57;1141342;-75
2022/05/25 19:12:11;;;;;;;14.66;5.02;;;;;;;17.16;70.07;100578.95;5109145;56;1141095;-74
2022/05/25 19:17:18;;;;;;;17.05;10.80;;;;;;;17.09;70.32;100586.45;5137041;56;1141078;-75
2022/05/25 19:22:31;;;;;;;21.23;12.23;;;;;;;17.01;70.33;100585.05;5095849;56;1143300;-78
2022/05/25 19:27:36;;;;;;;20.12;9.60;;;;;;;17.05;70.83;100599.28;5084625;57;1143244;-77
2022/05/25 19:32:44;;;;;;;51.47;23.57;;;;;;;17.04;71.12;100604.28;5130683;57;1141172;-76
2022/05/25 19:37:54;;;;;;;37.20;16.63;;;;;;;17.02;71.19;100607.61;5133277;57;1143369;-74
2022/05/25 19:43:07;;;;;;;45.97;15.63;;;;;;;16.95;71.38;100605.73;5148624;56;1141129;-75
2022/05/25 19:48:13;;;;;;;27.57;13.13;;;;;;;16.84;71.21;100605.48;5186839;55;1141224;-73
2022/05/25 19:53:29;;;;;;;26.57;14.40;;;;;;;16.77;71.39;100610.63;5195387;55;1140935;-76
2022/05/25 19:58:36;;;;;;;19.90;12.73;;;;;;;16.67;71.26;100625.06;5160795;56;1141130;-72
2022/05/25 20:03:42;;;;;;;32.23;13.63;;;;;;;16.56;72.00;100626.62;5207575;55;1141146;-73
2022/05/25 20:08:48;;;;;;;36.90;15.83;;;;;;;16.47;72.58;100619.89;5171254;56;1141208;-74
2022/05/25 20:13:54;;;;;;;36.17;19.17;;;;;;;16.51;73.04;100615.89;5144660;56;1141091;-75
2022/05/25 20:19:00;;;;;;;21.37;12.13;;;;;;;16.50;73.23;100628.91;5144663;56;1141198;-76
2022/05/25 20:24:06;;;;;;;7.57;5.43;;;;;;;16.43;73.21;100622.52;5175959;56;1141271;-74
2022/05/25 20:29:12;;;;;;;10.43;5.40;;;;;;;16.37;73.86;100624.95;5265782;55;1136958;-76
2022/05/25 20:34:18;;;;;;;15.73;8.10;;;;;;;16.37;74.26;100628.95;5273333;56;1138953;-74
2022/05/25 20:39:24;;;;;;;10.03;6.83;;;;;;;16.30;74.16;100628.75;5288098;55;1139064;-77
2022/05/25 20:44:30;;;;;;;13.93;7.63;;;;;;;16.19;74.13;100636.99;5246608;55;1138977;-76
2022/05/25 20:49:36;;;;;;;16.87;8.83;;;;;;;16.07;74.42;100628.84;5277117;56;1139148;-76
2022/05/25 20:54:43;;;;;;;21.97;11.33;;;;;;;15.89;74.36;100640.02;5277496;56;1137140;-77
2022/05/25 20:59:49;;;;;;;17.63;8.27;;;;;;;15.81;74.78;100640.26;5276728;56;1138941;-76
2022/05/25 21:04:54;;;;;;;14.90;6.60;;;;;;;15.74;75.16;100647.16;5268145;56;1141132;-75
2022/05/25 21:10:02;;;;;;;19.03;9.77;;;;;;;15.73;75.67;100650.00;5277015;56;1141130;-74
2022/05/25 21:15:09;;;;;;;8.73;5.20;;;;;;;15.72;76.22;100652.33;5253190;56;1141111;-78
2022/05/25 21:20:19;;;;;;;3.00;2.02;;;;;;;15.71;76.41;100649.31;5263306;56;1139279;-75
2022/05/25 21:25:24;;;;;;;8.90;2.40;;;;;;;15.55;76.03;100649.95;5190932;57;1138939;-74
2022/05/25 21:35:55;;;;;;;6.05;2.85;;;;;;;15.25;76.51;100653.70;5190170;56;1138982;-76
2022/05/25 21:41:01;;;;;;;7.13;3.27;;;;;;;15.21;76.79;100648.80;5207680;56;1138946;-75
2022/05/25 21:51:30;;;;;;;3.40;3.10;;;;;;;14.94;77.17;100633.11;5190929;56;1139024;-74
2022/05/25 21:56:36;;;;;;;3.30;2.67;;;;;;;14.82;77.39;100640.08;5195533;56;1138961;-74
2022/05/25 22:01:42;;;;;;;7.27;2.73;;;;;;;14.71;77.51;100631.25;5204591;56;1138982;-74
2022/05/25 22:06:48;;;;;;;1.87;1.63;;;;;;;14.57;77.55;100641.50;5225919;56;1139209;-78
2022/05/25 22:11:54;;;;;;;5.73;2.00;;;;;;;14.58;77.70;100644.52;5210815;56;1139191;-73
2022/05/25 22:17:00;;;;;;;1.90;1.80;;;;;;;14.55;77.94;100644.79;5189949;56;1139023;-73
2022/05/25 22:22:07;;;;;;;5.13;2.00;;;;;;;14.48;77.48;100645.02;5188715;57;1139281;-74
2022/05/25 22:27:13;;;;;;;2.90;2.00;;;;;;;14.42;78.14;100648.58;5190135;57;1139017;-73
2022/05/25 22:32:19;;;;;;;4.03;2.20;;;;;;;14.39;78.25;100636.01;5177711;56;1139070;-72
2022/05/25 22:37:24;;;;;;;6.00;2.83;;;;;;;14.36;78.34;100637.64;5154307;56;1139227;-76
2022/05/25 22:42:30;;;;;;;5.47;3.20;;;;;;;14.21;78.14;100641.67;5233546;55;1139098;-77
2022/05/25 22:47:37;;;;;;;6.57;3.60;;;;;;;14.14;78.42;100643.22;5240500;55;1139018;-75
2022/05/25 22:52:43;;;;;;;9.43;5.00;;;;;;;14.12;78.50;100643.84;5241488;55;1139073;-74
2022/05/25 22:57:49;;;;;;;6.25;3.47;;;;;;;14.17;78.84;100639.80;5240624;55;1139016;-78
2022/05/25 23:02:55;;;;;;;4.97;2.60;;;;;;;14.21;79.14;100643.00;5192811;55;1139120;-74
2022/05/25 23:08:00;;;;;;;9.23;2.30;;;;;;;14.10;78.98;100643.98;5132750;56;1138880;-75
2022/05/25 23:13:06;;;;;;;5.60;3.10;;;;;;;13.97;79.19;100638.09;5154611;56;1139224;-73
2022/05/25 23:18:12;;;;;;;2.80;2.50;;;;;;;13.93;79.33;100631.36;5219067;56;1139100;-77
2022/05/25 23:23:18;;;;;;;2.80;2.50;;;;;;;13.85;79.31;100630.73;5218810;56;1138983;-73
2022/05/25 23:33:48;;;;;;;3.85;3.42;;;;;;;13.75;79.60;100619.73;5219212;56;1136946;-74
2022/05/25 23:38:54;;;;;;;5.83;3.57;;;;;;;13.69;79.64;100615.31;5219250;56;1137211;-72
2022/05/25 23:44:02;;;;;;;3.40;3.10;;;;;;;13.61;79.62;100619.13;5210487;56;1137031;-77
2022/05/25 23:49:08;;;;;;;10.10;2.63;;;;;;;13.58;79.79;100610.12;5218940;56;1137182;-76
2022/05/25 23:54:19;;;;;;;6.50;3.27;;;;;;;13.57;79.53;100612.91;5218860;56;1139354;-73
2022/05/25 23:59:21;;;;;;;5.80;2.43;;;;;;;13.58;79.98;100610.12;5218742;56;1137002;-72
